VOZ1486 YPPD-YPPH
Flight info
| Callsign | VOZ1486 |
|---|---|
| Flight time | N/A |
| Altitude | 36000 |
| Route | PD Q9 AVPAL Q38 PH |
| Aircraft | B738/M-VGDW/C |
Departure
| Time | 2026-05-05 06:57 |
|---|---|
| Airport | Port Hedland International Airport (YPPD) |
Arrival
| Time | N/A |
|---|---|
| Airport | Perth International Airport (YPPH) |
| Time | Latitude | Longitude | Altitude | Speed | Heading |
|---|---|---|---|---|---|
| 2026-05-05 06:38 | -20.37863 | 118.63148 | 32 ft | 0 kts | 47° |
| 2026-05-05 06:52 | -20.37860 | 118.63156 | 32 ft | 3 kts | 68° |
| 2026-05-05 06:52 | -20.37873 | 118.63166 | 30 ft | 2 kts | 196° |
| 2026-05-05 06:52 | -20.37891 | 118.63166 | 32 ft | 4 kts | 181° |
| 2026-05-05 06:52 | -20.37915 | 118.63153 | 32 ft | 4 kts | 243° |
| 2026-05-05 06:53 | -20.37916 | 118.63102 | 32 ft | 9 kts | 274° |
| 2026-05-05 06:53 | -20.37934 | 118.63041 | 30 ft | 9 kts | 227° |
| 2026-05-05 06:53 | -20.37970 | 118.62987 | 32 ft | 9 kts | 240° |
| 2026-05-05 06:53 | -20.38005 | 118.62935 | 32 ft | 9 kts | 228° |
| 2026-05-05 06:54 | -20.38046 | 118.62889 | 32 ft | 8 kts | 227° |
| 2026-05-05 06:54 | -20.38075 | 118.62839 | 31 ft | 8 kts | 265° |
| 2026-05-05 06:54 | -20.38045 | 118.62785 | 33 ft | 12 kts | 317° |
| 2026-05-05 06:54 | -20.37948 | 118.62688 | 32 ft | 25 kts | 317° |
| 2026-05-05 06:55 | -20.37790 | 118.62534 | 33 ft | 36 kts | 317° |
| 2026-05-05 06:55 | -20.37598 | 118.62346 | 35 ft | 37 kts | 317° |
| 2026-05-05 06:55 | -20.37443 | 118.62209 | 33 ft | 16 kts | 329° |
| 2026-05-05 06:55 | -20.37431 | 118.62178 | 33 ft | 3 kts | 206° |
| 2026-05-05 06:56 | -20.37447 | 118.62190 | 33 ft | 3 kts | 125° |
| 2026-05-05 06:56 | -20.37454 | 118.62201 | 33 ft | 0 kts | 136° |
| 2026-05-05 06:57 | -20.37589 | 118.62335 | 35 ft | 66 kts | 137° |
| 2026-05-05 06:57 | -20.38130 | 118.62863 | 32 ft | 141 kts | 137° |
| 2026-05-05 06:57 | -20.38986 | 118.63698 | 373 ft | 181 kts | 138° |
| 2026-05-05 06:57 | -20.40018 | 118.64502 | 1203 ft | 196 kts | 155° |
| 2026-05-05 06:58 | -20.41414 | 118.64733 | 1788 ft | 214 kts | 180° |
| 2026-05-05 06:58 | -20.42987 | 118.64504 | 2053 ft | 238 kts | 187° |
| 2026-05-05 06:58 | -20.44591 | 118.64169 | 2792 ft | 237 kts | 188° |
| 2026-05-05 06:58 | -20.46263 | 118.63807 | 3227 ft | 256 kts | 188° |
| 2026-05-05 06:59 | -20.48043 | 118.63425 | 3952 ft | 263 kts | 189° |
| 2026-05-05 06:59 | -20.49841 | 118.63044 | 4905 ft | 262 kts | 189° |
| 2026-05-05 06:59 | -20.51607 | 118.62673 | 5836 ft | 261 kts | 190° |
| 2026-05-05 06:59 | -20.53399 | 118.62302 | 6678 ft | 263 kts | 190° |
| 2026-05-05 07:00 | -20.54603 | 118.62055 | 7157 ft | 266 kts | 190° |
| 2026-05-05 07:00 | -20.57057 | 118.61555 | 8149 ft | 272 kts | 191° |
| 2026-05-05 07:00 | -20.58302 | 118.61303 | 8663 ft | 275 kts | 191° |
| 2026-05-05 07:00 | -20.60197 | 118.60920 | 9439 ft | 279 kts | 192° |
| 2026-05-05 07:01 | -20.62120 | 118.60532 | 10180 ft | 284 kts | 192° |
| 2026-05-05 07:01 | -20.64127 | 118.60129 | 10484 ft | 305 kts | 192° |
| 2026-05-05 07:01 | -20.66302 | 118.59690 | 10655 ft | 328 kts | 192° |
| 2026-05-05 07:01 | -20.68621 | 118.59224 | 10911 ft | 346 kts | 192° |
| 2026-05-05 07:02 | -20.70984 | 118.58751 | 11444 ft | 352 kts | 192° |
| 2026-05-05 07:02 | -20.73383 | 118.58273 | 11917 ft | 349 kts | 192° |
| 2026-05-05 07:02 | -20.75798 | 118.57791 | 11988 ft | 351 kts | 192° |
| 2026-05-05 07:02 | -20.78170 | 118.57317 | 12012 ft | 351 kts | 192° |
| 2026-05-05 07:03 | -20.80609 | 118.56830 | 12213 ft | 361 kts | 192° |
| 2026-05-05 07:03 | -20.83084 | 118.56335 | 13028 ft | 359 kts | 192° |
| 2026-05-05 07:03 | -20.85558 | 118.55840 | 13673 ft | 364 kts | 192° |
| 2026-05-05 07:03 | -20.88042 | 118.55342 | 14184 ft | 369 kts | 192° |
| 2026-05-05 07:04 | -20.90577 | 118.54834 | 14814 ft | 371 kts | 192° |
| 2026-05-05 07:04 | -20.93126 | 118.54324 | 15399 ft | 374 kts | 193° |
| 2026-05-05 07:04 | -20.95691 | 118.53810 | 15980 ft | 376 kts | 193° |
| 2026-05-05 07:04 | -20.98280 | 118.53290 | 16563 ft | 379 kts | 193° |
| 2026-05-05 07:05 | -21.00855 | 118.52774 | 17119 ft | 382 kts | 194° |
| 2026-05-05 07:05 | -21.03474 | 118.52248 | 17675 ft | 385 kts | 194° |
| 2026-05-05 07:05 | -21.06138 | 118.51713 | 18217 ft | 388 kts | 194° |
| 2026-05-05 07:05 | -21.08802 | 118.51178 | 18688 ft | 390 kts | 195° |
| 2026-05-05 07:06 | -21.11483 | 118.50639 | 19149 ft | 393 kts | 195° |
| 2026-05-05 07:06 | -21.14188 | 118.50095 | 19610 ft | 396 kts | 195° |
| 2026-05-05 07:06 | -21.16872 | 118.49556 | 20065 ft | 398 kts | 195° |
| 2026-05-05 07:06 | -21.19612 | 118.49005 | 20529 ft | 401 kts | 195° |
| 2026-05-05 07:07 | -21.22368 | 118.48451 | 20995 ft | 403 kts | 195° |
| 2026-05-05 07:07 | -21.25110 | 118.47899 | 21449 ft | 406 kts | 196° |
| 2026-05-05 07:07 | -21.27909 | 118.47335 | 21888 ft | 409 kts | 196° |
| 2026-05-05 07:07 | -21.30726 | 118.46768 | 22341 ft | 411 kts | 196° |
| 2026-05-05 07:08 | -21.33517 | 118.46205 | 22773 ft | 414 kts | 196° |
| 2026-05-05 07:08 | -21.36359 | 118.45633 | 23196 ft | 416 kts | 196° |
| 2026-05-05 07:08 | -21.39221 | 118.45055 | 23598 ft | 420 kts | 196° |
| 2026-05-05 07:08 | -21.42108 | 118.44473 | 23925 ft | 422 kts | 196° |
| 2026-05-05 07:09 | -21.45014 | 118.43887 | 24285 ft | 424 kts | 197° |
| 2026-05-05 07:09 | -21.47898 | 118.43305 | 24655 ft | 425 kts | 197° |
| 2026-05-05 07:09 | -21.50813 | 118.42717 | 25010 ft | 427 kts | 197° |
| 2026-05-05 07:09 | -21.53747 | 118.42124 | 25358 ft | 429 kts | 197° |
| 2026-05-05 07:10 | -21.56697 | 118.41528 | 25707 ft | 431 kts | 197° |
| 2026-05-05 07:10 | -21.59612 | 118.40939 | 26053 ft | 432 kts | 198° |
| 2026-05-05 07:10 | -21.62587 | 118.40337 | 26391 ft | 434 kts | 198° |
| 2026-05-05 07:10 | -21.65571 | 118.39734 | 26673 ft | 436 kts | 198° |
| 2026-05-05 07:11 | -21.68570 | 118.39126 | 26975 ft | 438 kts | 198° |
| 2026-05-05 07:11 | -21.71538 | 118.38525 | 27332 ft | 439 kts | 198° |
| 2026-05-05 07:11 | -21.74556 | 118.37914 | 27657 ft | 440 kts | 199° |
| 2026-05-05 07:11 | -21.77581 | 118.37301 | 27949 ft | 442 kts | 199° |
| 2026-05-05 07:12 | -21.80583 | 118.36691 | 28227 ft | 444 kts | 199° |
| 2026-05-05 07:12 | -21.83627 | 118.36073 | 28499 ft | 446 kts | 199° |
| 2026-05-05 07:12 | -21.86695 | 118.35451 | 28784 ft | 448 kts | 199° |
| 2026-05-05 07:12 | -21.89773 | 118.34826 | 29068 ft | 449 kts | 199° |
| 2026-05-05 07:13 | -21.92857 | 118.34200 | 29345 ft | 450 kts | 199° |
| 2026-05-05 07:13 | -21.95937 | 118.33575 | 29687 ft | 450 kts | 200° |
| 2026-05-05 07:13 | -21.98974 | 118.32960 | 30124 ft | 447 kts | 200° |
| 2026-05-05 07:13 | -22.02027 | 118.32340 | 30503 ft | 445 kts | 200° |
| 2026-05-05 07:14 | -22.05076 | 118.31737 | 30859 ft | 444 kts | 200° |
| 2026-05-05 07:14 | -22.08130 | 118.31165 | 31170 ft | 443 kts | 199° |
| 2026-05-05 07:14 | -22.11133 | 118.30617 | 31495 ft | 442 kts | 199° |
| 2026-05-05 07:14 | -22.14194 | 118.30063 | 31850 ft | 440 kts | 200° |
| 2026-05-05 07:15 | -22.17185 | 118.29519 | 32213 ft | 438 kts | 200° |
| 2026-05-05 07:15 | -22.20199 | 118.28968 | 32534 ft | 436 kts | 200° |
| 2026-05-05 07:15 | -22.23159 | 118.28424 | 32853 ft | 435 kts | 200° |
| 2026-05-05 07:15 | -22.26154 | 118.27871 | 33209 ft | 433 kts | 200° |
| 2026-05-05 07:16 | -22.29124 | 118.27321 | 33542 ft | 432 kts | 201° |
| 2026-05-05 07:16 | -22.32088 | 118.26771 | 33868 ft | 431 kts | 201° |
| 2026-05-05 07:16 | -22.35005 | 118.26231 | 34188 ft | 429 kts | 201° |
| 2026-05-05 07:16 | -22.37944 | 118.25686 | 34476 ft | 427 kts | 201° |
| 2026-05-05 07:17 | -22.40881 | 118.25141 | 34718 ft | 426 kts | 201° |
| 2026-05-05 07:17 | -22.43808 | 118.24597 | 34989 ft | 425 kts | 201° |
| 2026-05-05 07:17 | -22.46718 | 118.24057 | 35272 ft | 423 kts | 201° |
| 2026-05-05 07:17 | -22.49580 | 118.23525 | 35477 ft | 422 kts | 201° |
| 2026-05-05 07:18 | -22.52475 | 118.22987 | 35600 ft | 422 kts | 201° |
| 2026-05-05 07:18 | -22.55374 | 118.22446 | 35725 ft | 422 kts | 202° |
| 2026-05-05 07:18 | -22.58267 | 118.21907 | 36003 ft | 419 kts | 202° |
| 2026-05-05 07:19 | -22.64051 | 118.20827 | 36090 ft | 423 kts | 202° |
| 2026-05-05 07:19 | -22.69814 | 118.19754 | 36088 ft | 419 kts | 202° |
| 2026-05-05 07:20 | -22.75556 | 118.18689 | 36090 ft | 415 kts | 202° |
| 2026-05-05 07:20 | -22.81226 | 118.17630 | 36089 ft | 414 kts | 202° |
| 2026-05-05 07:21 | -22.86872 | 118.16573 | 36096 ft | 413 kts | 202° |
| 2026-05-05 07:21 | -22.92544 | 118.15511 | 36088 ft | 413 kts | 202° |
| 2026-05-05 07:22 | -22.98221 | 118.14447 | 36097 ft | 414 kts | 202° |
| 2026-05-05 07:22 | -23.03899 | 118.13383 | 36088 ft | 415 kts | 202° |
| 2026-05-05 07:23 | -23.09617 | 118.12311 | 36089 ft | 418 kts | 202° |
| 2026-05-05 07:23 | -23.15342 | 118.11237 | 36092 ft | 419 kts | 202° |
| 2026-05-05 07:24 | -23.21079 | 118.10161 | 36096 ft | 420 kts | 202° |
| 2026-05-05 07:24 | -23.26838 | 118.09078 | 36089 ft | 421 kts | 202° |
| 2026-05-05 07:25 | -23.32645 | 118.07987 | 36094 ft | 422 kts | 201° |
| 2026-05-05 07:25 | -23.38435 | 118.06898 | 36090 ft | 422 kts | 201° |
| 2026-05-05 07:26 | -23.44181 | 118.05817 | 36094 ft | 421 kts | 201° |
| 2026-05-05 07:26 | -23.49976 | 118.04724 | 36099 ft | 421 kts | 201° |
| 2026-05-05 07:27 | -23.55728 | 118.03639 | 36096 ft | 420 kts | 201° |
| 2026-05-05 07:27 | -23.61472 | 118.02554 | 36096 ft | 419 kts | 201° |
| 2026-05-05 07:28 | -23.67230 | 118.01465 | 36094 ft | 419 kts | 201° |
| 2026-05-05 07:28 | -23.72954 | 118.00382 | 36096 ft | 419 kts | 201° |
| 2026-05-05 07:29 | -23.78710 | 117.99291 | 36101 ft | 419 kts | 201° |
| 2026-05-05 07:29 | -23.84438 | 117.98205 | 36101 ft | 419 kts | 201° |
| 2026-05-05 07:30 | -23.90201 | 117.97111 | 36106 ft | 419 kts | 201° |
| 2026-05-05 07:30 | -23.98818 | 117.95473 | 36110 ft | 420 kts | 201° |
| 2026-05-05 07:31 | -24.04583 | 117.94377 | 36112 ft | 421 kts | 201° |
| 2026-05-05 07:31 | -24.10327 | 117.93283 | 36109 ft | 421 kts | 201° |
| 2026-05-05 07:32 | -24.16124 | 117.92179 | 36117 ft | 422 kts | 201° |
| 2026-05-05 07:32 | -24.21887 | 117.91080 | 36124 ft | 423 kts | 201° |
| 2026-05-05 07:33 | -24.27699 | 117.89970 | 36125 ft | 423 kts | 200° |
| 2026-05-05 07:33 | -24.33516 | 117.88859 | 36123 ft | 424 kts | 200° |
| 2026-05-05 07:34 | -24.39305 | 117.87752 | 36125 ft | 424 kts | 200° |
| 2026-05-05 07:34 | -24.45146 | 117.86634 | 36127 ft | 425 kts | 200° |
| 2026-05-05 07:35 | -24.50957 | 117.85521 | 36141 ft | 425 kts | 200° |
| 2026-05-05 07:35 | -24.56791 | 117.84402 | 36136 ft | 425 kts | 200° |
| 2026-05-05 07:36 | -24.62590 | 117.83290 | 36128 ft | 425 kts | 200° |
| 2026-05-05 07:36 | -24.68432 | 117.82168 | 36132 ft | 425 kts | 200° |
| 2026-05-05 07:37 | -24.74248 | 117.81049 | 36130 ft | 425 kts | 199° |
| 2026-05-05 07:37 | -24.80097 | 117.79923 | 36134 ft | 426 kts | 199° |
| 2026-05-05 07:38 | -24.85918 | 117.78801 | 36141 ft | 426 kts | 199° |
| 2026-05-05 07:38 | -24.91743 | 117.77678 | 36138 ft | 426 kts | 199° |
| 2026-05-05 07:39 | -24.97601 | 117.76546 | 36143 ft | 426 kts | 199° |
| 2026-05-05 07:39 | -25.03431 | 117.75420 | 36137 ft | 426 kts | 198° |
| 2026-05-05 07:40 | -25.09279 | 117.74289 | 36149 ft | 426 kts | 198° |
| 2026-05-05 07:40 | -25.15104 | 117.73161 | 36151 ft | 426 kts | 198° |
| 2026-05-05 07:41 | -25.20968 | 117.72024 | 36142 ft | 426 kts | 198° |
| 2026-05-05 07:41 | -25.26820 | 117.70889 | 36149 ft | 427 kts | 197° |
| 2026-05-05 07:42 | -25.32650 | 117.69757 | 36153 ft | 427 kts | 197° |
| 2026-05-05 07:42 | -25.38515 | 117.68617 | 36151 ft | 427 kts | 197° |
| 2026-05-05 07:43 | -25.44348 | 117.67482 | 36153 ft | 428 kts | 197° |
| 2026-05-05 07:43 | -25.50229 | 117.66336 | 36156 ft | 428 kts | 197° |
| 2026-05-05 07:44 | -25.56108 | 117.65190 | 36159 ft | 429 kts | 197° |
| 2026-05-05 07:44 | -25.61005 | 117.64235 | 36160 ft | 430 kts | 197° |
| 2026-05-05 07:45 | -25.66921 | 117.63079 | 36157 ft | 430 kts | 196° |
| 2026-05-05 07:45 | -25.72797 | 117.61930 | 36159 ft | 431 kts | 196° |
| 2026-05-05 07:46 | -25.78716 | 117.60772 | 36160 ft | 431 kts | 196° |
| 2026-05-05 07:46 | -25.84637 | 117.59612 | 36160 ft | 432 kts | 196° |
| 2026-05-05 07:47 | -25.90525 | 117.58458 | 36162 ft | 432 kts | 196° |
| 2026-05-05 07:47 | -25.96458 | 117.57293 | 36159 ft | 432 kts | 195° |
| 2026-05-05 07:48 | -26.02349 | 117.56136 | 36161 ft | 432 kts | 195° |
| 2026-05-05 07:48 | -26.08287 | 117.54967 | 36163 ft | 432 kts | 195° |
| 2026-05-05 07:49 | -26.14186 | 117.53806 | 36163 ft | 432 kts | 195° |
| 2026-05-05 07:49 | -26.20123 | 117.52636 | 36169 ft | 432 kts | 195° |
| 2026-05-05 07:50 | -26.26055 | 117.51466 | 36168 ft | 432 kts | 195° |
| 2026-05-05 07:50 | -26.31973 | 117.50297 | 36169 ft | 432 kts | 194° |
| 2026-05-05 07:51 | -26.37883 | 117.49128 | 36170 ft | 433 kts | 194° |
| 2026-05-05 07:51 | -26.43828 | 117.47952 | 36172 ft | 433 kts | 194° |
| 2026-05-05 07:52 | -26.49743 | 117.46780 | 36175 ft | 433 kts | 194° |
| 2026-05-05 07:52 | -26.55661 | 117.45606 | 36174 ft | 433 kts | 194° |
| 2026-05-05 07:53 | -26.61618 | 117.44424 | 36177 ft | 433 kts | 194° |
| 2026-05-05 07:53 | -26.67532 | 117.43248 | 36179 ft | 434 kts | 194° |
| 2026-05-05 07:54 | -26.73495 | 117.42061 | 36185 ft | 434 kts | 194° |
| 2026-05-05 07:54 | -26.79445 | 117.40876 | 36186 ft | 434 kts | 194° |
| 2026-05-05 07:55 | -26.85354 | 117.39698 | 36188 ft | 434 kts | 194° |
| 2026-05-05 07:55 | -26.91309 | 117.38509 | 36188 ft | 434 kts | 194° |
| 2026-05-05 07:56 | -26.97269 | 117.37319 | 36193 ft | 434 kts | 194° |
| 2026-05-05 07:56 | -27.03226 | 117.36127 | 36195 ft | 434 kts | 193° |
| 2026-05-05 07:57 | -27.09152 | 117.34940 | 36193 ft | 434 kts | 193° |
| 2026-05-05 07:57 | -27.15108 | 117.33747 | 36193 ft | 434 kts | 193° |
| 2026-05-05 07:58 | -27.21072 | 117.32550 | 36195 ft | 434 kts | 193° |
| 2026-05-05 07:58 | -27.26993 | 117.31360 | 36199 ft | 433 kts | 193° |
| 2026-05-05 07:59 | -27.32941 | 117.30164 | 36197 ft | 433 kts | 193° |
| 2026-05-05 07:59 | -27.38845 | 117.28975 | 36197 ft | 433 kts | 193° |
| 2026-05-05 08:00 | -27.44789 | 117.27777 | 36202 ft | 433 kts | 193° |
| 2026-05-05 08:00 | -27.50740 | 117.26576 | 36204 ft | 433 kts | 193° |
| 2026-05-05 08:01 | -27.56645 | 117.25383 | 36202 ft | 434 kts | 193° |
| 2026-05-05 08:01 | -27.62595 | 117.24180 | 36208 ft | 434 kts | 193° |
| 2026-05-05 08:02 | -27.68555 | 117.22973 | 36215 ft | 434 kts | 193° |
| 2026-05-05 08:02 | -27.74484 | 117.21771 | 36209 ft | 435 kts | 193° |
| 2026-05-05 08:03 | -27.80456 | 117.20559 | 36208 ft | 435 kts | 193° |
| 2026-05-05 08:03 | -27.86397 | 117.19352 | 36211 ft | 436 kts | 193° |
| 2026-05-05 08:04 | -27.92370 | 117.18135 | 36211 ft | 436 kts | 193° |
| 2026-05-05 08:04 | -27.98351 | 117.16913 | 36217 ft | 436 kts | 193° |
| 2026-05-05 08:05 | -28.04343 | 117.15689 | 36213 ft | 436 kts | 193° |
| 2026-05-05 08:05 | -28.10302 | 117.14470 | 36221 ft | 436 kts | 193° |
| 2026-05-05 08:06 | -28.16292 | 117.13243 | 36219 ft | 436 kts | 193° |
| 2026-05-05 08:06 | -28.22250 | 117.12021 | 36221 ft | 436 kts | 193° |
| 2026-05-05 08:07 | -28.28238 | 117.10791 | 36223 ft | 436 kts | 193° |
| 2026-05-05 08:07 | -28.34210 | 117.09564 | 36224 ft | 435 kts | 193° |
| 2026-05-05 08:08 | -28.40145 | 117.08342 | 36222 ft | 435 kts | 193° |
| 2026-05-05 08:08 | -28.46075 | 117.07121 | 36221 ft | 434 kts | 193° |
| 2026-05-05 08:09 | -28.52025 | 117.05897 | 36226 ft | 433 kts | 193° |
| 2026-05-05 08:09 | -28.57973 | 117.04673 | 36227 ft | 433 kts | 193° |
| 2026-05-05 08:10 | -28.63888 | 117.03454 | 36228 ft | 433 kts | 193° |
| 2026-05-05 08:10 | -28.69825 | 117.02228 | 36236 ft | 433 kts | 193° |
| 2026-05-05 08:11 | -28.75726 | 117.01008 | 36228 ft | 433 kts | 193° |
| 2026-05-05 08:11 | -28.81670 | 116.99779 | 36241 ft | 433 kts | 193° |
| 2026-05-05 08:12 | -28.87589 | 116.98552 | 36239 ft | 434 kts | 193° |
| 2026-05-05 08:12 | -28.93559 | 116.97314 | 36234 ft | 434 kts | 193° |
| 2026-05-05 08:13 | -28.99487 | 116.96083 | 36240 ft | 435 kts | 193° |
| 2026-05-05 08:13 | -29.05414 | 116.94851 | 36243 ft | 435 kts | 193° |
| 2026-05-05 08:14 | -29.11396 | 116.93607 | 36240 ft | 436 kts | 193° |
| 2026-05-05 08:14 | -29.17372 | 116.92361 | 36239 ft | 436 kts | 193° |
| 2026-05-05 08:15 | -29.23322 | 116.91120 | 36244 ft | 436 kts | 193° |
| 2026-05-05 08:15 | -29.29276 | 116.89877 | 36247 ft | 436 kts | 193° |
| 2026-05-05 08:16 | -29.35268 | 116.88624 | 36247 ft | 436 kts | 194° |
| 2026-05-05 08:16 | -29.41216 | 116.87379 | 36253 ft | 436 kts | 194° |
| 2026-05-05 08:17 | -29.47203 | 116.86124 | 36248 ft | 436 kts | 194° |
| 2026-05-05 08:17 | -29.53151 | 116.84876 | 36252 ft | 436 kts | 194° |
| 2026-05-05 08:18 | -29.59093 | 116.83627 | 36251 ft | 436 kts | 194° |
| 2026-05-05 08:18 | -29.65068 | 116.82371 | 36253 ft | 435 kts | 194° |
| 2026-05-05 08:19 | -29.71048 | 116.81111 | 36259 ft | 435 kts | 194° |
| 2026-05-05 08:19 | -29.76974 | 116.79861 | 36259 ft | 435 kts | 194° |
| 2026-05-05 08:20 | -29.82938 | 116.78602 | 36256 ft | 434 kts | 194° |
| 2026-05-05 08:20 | -29.88857 | 116.77351 | 36264 ft | 434 kts | 194° |
| 2026-05-05 08:21 | -29.94816 | 116.76090 | 36264 ft | 434 kts | 194° |
| 2026-05-05 08:21 | -30.00725 | 116.74838 | 36269 ft | 434 kts | 194° |
| 2026-05-05 08:22 | -30.06680 | 116.73574 | 36149 ft | 435 kts | 194° |
| 2026-05-05 08:22 | -30.09649 | 116.72944 | 35874 ft | 432 kts | 194° |
| 2026-05-05 08:22 | -30.12604 | 116.72318 | 35626 ft | 427 kts | 194° |
| 2026-05-05 08:23 | -30.15481 | 116.71708 | 35383 ft | 421 kts | 194° |
| 2026-05-05 08:23 | -30.18356 | 116.71097 | 35145 ft | 419 kts | 194° |
| 2026-05-05 08:23 | -30.21220 | 116.70487 | 34906 ft | 417 kts | 194° |
| 2026-05-05 08:23 | -30.24068 | 116.69880 | 34674 ft | 415 kts | 194° |
| 2026-05-05 08:24 | -30.26871 | 116.69281 | 34446 ft | 413 kts | 194° |
| 2026-05-05 08:24 | -30.29692 | 116.68679 | 34201 ft | 412 kts | 194° |
| 2026-05-05 08:24 | -30.32519 | 116.68076 | 33934 ft | 411 kts | 194° |
| 2026-05-05 08:24 | -30.35340 | 116.67473 | 33668 ft | 410 kts | 194° |
| 2026-05-05 08:25 | -30.38111 | 116.66881 | 33414 ft | 409 kts | 194° |
| 2026-05-05 08:25 | -30.40911 | 116.66282 | 33153 ft | 408 kts | 194° |
| 2026-05-05 08:25 | -30.43713 | 116.65683 | 32891 ft | 408 kts | 194° |
| 2026-05-05 08:25 | -30.46508 | 116.65084 | 32634 ft | 407 kts | 193° |
| 2026-05-05 08:26 | -30.49303 | 116.64486 | 32403 ft | 406 kts | 193° |
| 2026-05-05 08:26 | -30.52047 | 116.63898 | 32142 ft | 405 kts | 193° |
| 2026-05-05 08:26 | -30.54825 | 116.63297 | 31889 ft | 404 kts | 194° |
| 2026-05-05 08:26 | -30.57534 | 116.62461 | 31640 ft | 401 kts | 200° |
| 2026-05-05 08:27 | -30.60181 | 116.61435 | 31403 ft | 399 kts | 201° |
| 2026-05-05 08:27 | -30.62783 | 116.60381 | 31116 ft | 393 kts | 201° |
| 2026-05-05 08:27 | -30.65329 | 116.59352 | 30727 ft | 391 kts | 201° |
| 2026-05-05 08:27 | -30.67899 | 116.58327 | 30310 ft | 390 kts | 201° |
| 2026-05-05 08:28 | -30.70476 | 116.57314 | 29819 ft | 388 kts | 200° |
| 2026-05-05 08:28 | -30.73045 | 116.56312 | 29247 ft | 388 kts | 200° |
| 2026-05-05 08:28 | -30.75581 | 116.55325 | 28667 ft | 390 kts | 200° |
| 2026-05-05 08:28 | -30.78166 | 116.54320 | 28089 ft | 391 kts | 200° |
| 2026-05-05 08:29 | -30.80746 | 116.53316 | 27520 ft | 390 kts | 200° |
| 2026-05-05 08:29 | -30.83318 | 116.52314 | 26982 ft | 387 kts | 200° |
| 2026-05-05 08:29 | -30.85851 | 116.51326 | 26537 ft | 381 kts | 200° |
| 2026-05-05 08:30 | -30.90801 | 116.49393 | 25649 ft | 371 kts | 200° |
| 2026-05-05 08:30 | -30.93238 | 116.48441 | 25215 ft | 367 kts | 200° |
| 2026-05-05 08:30 | -30.95650 | 116.47497 | 24734 ft | 363 kts | 200° |
| 2026-05-05 08:30 | -30.98023 | 116.46568 | 24160 ft | 363 kts | 200° |
| 2026-05-05 08:31 | -31.00418 | 116.45630 | 23547 ft | 362 kts | 200° |
| 2026-05-05 08:31 | -31.02004 | 116.45009 | 23111 ft | 362 kts | 200° |
| 2026-05-05 08:31 | -31.04396 | 116.44072 | 22458 ft | 361 kts | 200° |
| 2026-05-05 08:31 | -31.06775 | 116.43139 | 21813 ft | 360 kts | 200° |
| 2026-05-05 08:32 | -31.09146 | 116.42208 | 21189 ft | 358 kts | 200° |
| 2026-05-05 08:32 | -31.11506 | 116.41281 | 20571 ft | 356 kts | 200° |
| 2026-05-05 08:32 | -31.13821 | 116.40371 | 19970 ft | 353 kts | 200° |
| 2026-05-05 08:32 | -31.16152 | 116.39454 | 19316 ft | 352 kts | 200° |
| 2026-05-05 08:33 | -31.18476 | 116.38539 | 18682 ft | 350 kts | 199° |
| 2026-05-05 08:33 | -31.20748 | 116.37644 | 18065 ft | 346 kts | 199° |
| 2026-05-05 08:33 | -31.23027 | 116.36746 | 17435 ft | 343 kts | 199° |
| 2026-05-05 08:33 | -31.25284 | 116.35856 | 16820 ft | 339 kts | 198° |
| 2026-05-05 08:34 | -31.27515 | 116.34976 | 16224 ft | 336 kts | 198° |
| 2026-05-05 08:34 | -31.29695 | 116.34115 | 15643 ft | 333 kts | 197° |
| 2026-05-05 08:34 | -31.31889 | 116.33249 | 15065 ft | 330 kts | 197° |
| 2026-05-05 08:34 | -31.34062 | 116.32391 | 14499 ft | 327 kts | 197° |
| 2026-05-05 08:35 | -31.36219 | 116.31539 | 13918 ft | 325 kts | 197° |
| 2026-05-05 08:35 | -31.38328 | 116.30705 | 13308 ft | 323 kts | 197° |
| 2026-05-05 08:35 | -31.40453 | 116.29865 | 12692 ft | 320 kts | 197° |
| 2026-05-05 08:35 | -31.42538 | 116.28948 | 12086 ft | 319 kts | 203° |
| 2026-05-05 08:36 | -31.44517 | 116.27753 | 11497 ft | 317 kts | 207° |
| 2026-05-05 08:36 | -31.46410 | 116.26496 | 10930 ft | 315 kts | 208° |
| 2026-05-05 08:36 | -31.48304 | 116.25228 | 10620 ft | 305 kts | 208° |
| 2026-05-05 08:36 | -31.50121 | 116.24024 | 10491 ft | 293 kts | 207° |
| 2026-05-05 08:37 | -31.51878 | 116.22876 | 10193 ft | 287 kts | 207° |
| 2026-05-05 08:37 | -31.53611 | 116.21754 | 9683 ft | 286 kts | 207° |
| 2026-05-05 08:37 | -31.55341 | 116.20640 | 9224 ft | 282 kts | 207° |
| 2026-05-05 08:37 | -31.57062 | 116.19534 | 8762 ft | 279 kts | 207° |
| 2026-05-05 08:38 | -31.58768 | 116.18440 | 8334 ft | 276 kts | 207° |
| 2026-05-05 08:38 | -31.60347 | 116.17427 | 8205 ft | 263 kts | 207° |
| 2026-05-05 08:38 | -31.61914 | 116.16421 | 8054 ft | 251 kts | 207° |
| 2026-05-05 08:38 | -31.63457 | 116.15433 | 7624 ft | 253 kts | 207° |
| 2026-05-05 08:39 | -31.64979 | 116.14457 | 7207 ft | 253 kts | 207° |
| 2026-05-05 08:39 | -31.66524 | 116.13465 | 6782 ft | 253 kts | 207° |
| 2026-05-05 08:39 | -31.68068 | 116.12472 | 6343 ft | 253 kts | 207° |
| 2026-05-05 08:39 | -31.69476 | 116.11567 | 5982 ft | 253 kts | 207° |
| 2026-05-05 08:40 | -31.71024 | 116.10572 | 5571 ft | 251 kts | 207° |
| 2026-05-05 08:40 | -31.72550 | 116.09592 | 5190 ft | 250 kts | 207° |
| 2026-05-05 08:40 | -31.74080 | 116.08608 | 4782 ft | 249 kts | 206° |
| 2026-05-05 08:40 | -31.75529 | 116.07499 | 4390 ft | 248 kts | 223° |
| 2026-05-05 08:41 | -31.76624 | 116.05964 | 4029 ft | 242 kts | 231° |
| 2026-05-05 08:41 | -31.77597 | 116.04409 | 3635 ft | 235 kts | 232° |
| 2026-05-05 08:41 | -31.78548 | 116.02895 | 3338 ft | 223 kts | 231° |
| 2026-05-05 08:41 | -31.79460 | 116.01461 | 2966 ft | 216 kts | 231° |
| 2026-05-05 08:42 | -31.80528 | 116.00328 | 2706 ft | 199 kts | 197° |
| 2026-05-05 08:42 | -31.81806 | 116.00119 | 2562 ft | 180 kts | 185° |
| 2026-05-05 08:42 | -31.83011 | 115.99732 | 2516 ft | 178 kts | 194° |
| 2026-05-05 08:42 | -31.84216 | 115.99380 | 2504 ft | 178 kts | 191° |
| 2026-05-05 08:43 | -31.85422 | 115.99040 | 2504 ft | 178 kts | 192° |
| 2026-05-05 08:43 | -31.86620 | 115.98722 | 2488 ft | 174 kts | 181° |
| 2026-05-05 08:43 | -31.87678 | 115.99217 | 2505 ft | 170 kts | 128° |
| 2026-05-05 08:43 | -31.88067 | 116.00568 | 2532 ft | 180 kts | 97° |
| 2026-05-05 08:44 | -31.88226 | 116.02033 | 2496 ft | 182 kts | 98° |
| 2026-05-05 08:44 | -31.88283 | 116.02533 | 2497 ft | 182 kts | 98° |